createdAt,value
2018-09-08T00:02:01.569Z,12.60
2018-09-08T00:04:30.214Z,12.60
2018-09-08T00:07:04.350Z,12.70
2018-09-08T00:09:32.977Z,12.70
2018-09-08T00:12:01.633Z,12.60
2018-09-08T00:17:10.735Z,12.60
2018-09-08T00:19:44.617Z,12.60
2018-09-08T00:22:18.841Z,12.60
2018-09-08T00:24:53.006Z,12.60
2018-09-08T00:27:26.135Z,12.60
2018-09-08T00:29:54.784Z,12.60
2018-09-08T00:32:23.733Z,12.60
2018-09-08T00:34:52.369Z,12.60
2018-09-08T00:37:21.034Z,12.60
2018-09-08T00:39:50.693Z,12.60
2018-09-08T00:42:19.797Z,12.60
2018-09-08T00:44:48.457Z,12.50
2018-09-08T00:47:17.181Z,12.50
2018-09-08T00:49:45.835Z,12.50
2018-09-08T00:52:14.478Z,12.50
2018-09-08T00:54:43.163Z,12.50
2018-09-08T00:57:11.807Z,12.50
2018-09-08T00:59:40.465Z,12.50
2018-09-08T01:02:09.105Z,12.60
2018-09-08T01:04:38.457Z,12.60
2018-09-08T01:07:12.349Z,12.60
2018-09-08T01:09:40.985Z,12.70
2018-09-08T01:12:09.653Z,12.70
2018-09-08T01:14:38.574Z,12.80
2018-09-08T01:17:07.353Z,12.80
2018-09-08T01:19:36.759Z,12.80
2018-09-08T01:22:05.416Z,12.80
2018-09-08T01:24:36.611Z,12.80
2018-09-08T01:27:06.734Z,12.90
2018-09-08T01:29:35.675Z,12.90
2018-09-08T01:32:05.268Z,12.90
2018-09-08T01:34:34.022Z,12.90
2018-09-08T01:37:03.782Z,13.00
2018-09-08T01:39:36.418Z,13.00
2018-09-08T01:42:05.518Z,12.90
2018-09-08T01:44:34.158Z,12.90
2018-09-08T01:47:02.794Z,12.90
2018-09-08T01:49:31.437Z,12.90
2018-09-08T01:52:00.106Z,12.90
2018-09-08T01:54:29.470Z,12.80
2018-09-08T01:56:58.389Z,12.80
2018-09-08T01:59:29.549Z,12.80
2018-09-08T02:01:58.425Z,12.80
2018-09-08T02:04:28.169Z,12.80
2018-09-08T02:06:56.802Z,12.70
2018-09-08T02:09:25.453Z,12.70
2018-09-08T02:11:54.983Z,12.70
2018-09-08T02:14:23.698Z,12.70
2018-09-08T02:16:52.373Z,12.70
2018-09-08T02:19:21.019Z,12.70
2018-09-08T02:21:49.653Z,12.70
2018-09-08T02:24:18.311Z,12.70
2018-09-08T02:26:46.954Z,12.70
2018-09-08T02:29:15.606Z,12.70
2018-09-08T02:31:44.241Z,12.70
2018-09-08T02:34:13.401Z,12.60
2018-09-08T02:36:42.026Z,12.60
2018-09-08T02:39:10.766Z,12.50
2018-09-08T02:41:39.430Z,12.50
2018-09-08T02:44:08.362Z,12.50
2018-09-08T02:46:37.122Z,12.40
2018-09-08T02:49:06.069Z,12.40
2018-09-08T02:51:33.758Z,12.40
2018-09-08T02:54:01.421Z,12.40
2018-09-08T02:56:29.098Z,12.40
2018-09-08T02:58:56.762Z,12.30
2018-09-08T03:01:24.425Z,12.30
2018-09-08T03:03:52.093Z,12.30
2018-09-08T03:06:19.761Z,12.20
2018-09-08T03:08:47.413Z,12.20
2018-09-08T03:11:15.074Z,12.20
2018-09-08T03:13:44.097Z,12.20
2018-09-08T03:16:11.923Z,12.10
2018-09-08T03:18:39.553Z,12.20
2018-09-08T03:21:07.238Z,12.10
2018-09-08T03:23:34.909Z,12.10
2018-09-08T03:26:04.180Z,12.10
2018-09-08T03:28:31.850Z,12.10
2018-09-08T03:30:59.566Z,12.10
2018-09-08T03:33:27.189Z,12.10
2018-09-08T03:35:54.849Z,12.10
2018-09-08T03:38:22.513Z,12.00
2018-09-08T03:40:50.170Z,12.00
2018-09-08T03:43:17.851Z,12.00
2018-09-08T03:45:45.524Z,12.00
2018-09-08T03:48:13.181Z,12.00
2018-09-08T03:50:40.838Z,12.00
2018-09-08T03:53:08.507Z,12.00
2018-09-08T03:55:36.167Z,12.00
2018-09-08T03:58:03.833Z,12.00
2018-09-08T04:00:31.504Z,12.00
2018-09-08T04:03:03.701Z,12.00
2018-09-08T04:05:32.386Z,12.00
2018-09-08T04:08:01.003Z,11.90
2018-09-08T04:10:29.646Z,11.90
2018-09-08T04:12:58.324Z,11.90
2018-09-08T04:15:27.017Z,11.90
2018-09-08T04:17:55.666Z,11.90
2018-09-08T04:20:24.286Z,11.90
2018-09-08T04:22:52.947Z,11.90
2018-09-08T04:25:21.601Z,11.90
2018-09-08T04:27:50.243Z,11.90
2018-09-08T04:30:18.881Z,11.90
2018-09-08T04:32:47.534Z,11.80
2018-09-08T04:35:16.166Z,11.80
2018-09-08T04:37:44.801Z,11.80
2018-09-08T04:40:13.523Z,11.80
2018-09-08T04:42:42.184Z,11.80
2018-09-08T04:45:10.830Z,11.80
2018-09-08T04:47:39.477Z,11.80
2018-09-08T04:50:08.225Z,11.80
2018-09-08T04:52:36.922Z,11.80
2018-09-08T04:55:05.593Z,11.80
2018-09-08T04:57:34.290Z,11.80
2018-09-08T05:00:02.938Z,11.80
2018-09-08T05:02:31.642Z,11.80
2018-09-08T05:05:00.323Z,11.80
2018-09-08T05:07:28.996Z,11.80
2018-09-08T05:09:57.654Z,11.80
2018-09-08T05:12:26.952Z,11.90
2018-09-08T05:14:55.605Z,11.90
2018-09-08T05:17:24.266Z,11.90
2018-09-08T05:19:52.907Z,11.90
2018-09-08T05:22:21.561Z,11.90
2018-09-08T05:24:50.303Z,11.90
2018-09-08T05:27:18.945Z,11.90
2018-09-08T05:29:47.718Z,11.90
2018-09-08T05:32:16.357Z,12.00
2018-09-08T05:34:44.993Z,12.00
2018-09-08T05:37:13.645Z,12.00
2018-09-08T05:39:42.305Z,12.00
2018-09-08T05:42:10.989Z,12.10
2018-09-08T05:44:39.650Z,12.20
2018-09-08T05:47:08.307Z,12.30
2018-09-08T05:49:36.953Z,12.30
2018-09-08T05:52:05.617Z,12.40
2018-09-08T05:54:34.369Z,12.30
2018-09-08T05:57:03.034Z,12.40
2018-09-08T05:59:31.704Z,12.40
2018-09-08T06:02:00.658Z,12.30
2018-09-08T06:04:30.355Z,12.40
2018-09-08T06:07:03.915Z,12.40
2018-09-08T06:09:33.638Z,12.40
2018-09-08T06:12:02.386Z,12.50
2018-09-08T06:14:32.153Z,12.50
2018-09-08T06:17:01.069Z,12.50
2018-09-08T06:19:29.730Z,12.60
2018-09-08T06:21:58.368Z,12.60
2018-09-08T06:24:28.152Z,12.70
2018-09-08T06:26:56.754Z,12.70
2018-09-08T06:29:25.400Z,12.80
2018-09-08T06:31:54.093Z,12.80
2018-09-08T06:34:22.696Z,12.90
2018-09-08T06:36:51.348Z,13.00
2018-09-08T06:39:19.981Z,13.00
2018-09-08T06:41:48.629Z,13.10
2018-09-08T06:44:17.277Z,13.10
2018-09-08T06:46:45.995Z,13.20
2018-09-08T06:49:14.625Z,13.30
2018-09-08T06:51:43.306Z,13.30
2018-09-08T06:54:11.981Z,13.30
2018-09-08T06:56:40.650Z,13.40
2018-09-08T06:59:09.296Z,13.50
2018-09-08T07:01:37.954Z,13.50
2018-09-08T07:04:06.714Z,13.50
2018-09-08T07:06:35.379Z,13.60
2018-09-08T07:09:05.794Z,13.70
2018-09-08T07:11:34.551Z,13.90
2018-09-08T07:14:03.226Z,13.90
2018-09-08T07:16:31.880Z,13.90
2018-09-08T07:19:00.522Z,13.90
2018-09-08T07:21:29.174Z,14.00
2018-09-08T07:23:57.829Z,14.10
2018-09-08T07:26:26.457Z,14.20
2018-09-08T07:28:55.393Z,14.30
2018-09-08T07:31:24.033Z,14.30
2018-09-08T07:33:52.677Z,14.40
2018-09-08T07:36:21.354Z,14.40
2018-09-08T07:38:50.005Z,14.60
2018-09-08T07:41:18.667Z,14.60
2018-09-08T07:43:47.342Z,14.70
2018-09-08T07:46:16.015Z,14.60
2018-09-08T07:48:44.663Z,14.70
2018-09-08T07:51:13.405Z,14.70
2018-09-08T07:53:42.144Z,14.70
2018-09-08T07:56:10.816Z,14.80
2018-09-08T07:58:39.479Z,15.20
2018-09-08T08:01:08.226Z,15.50
2018-09-08T08:03:36.867Z,15.70
2018-09-08T08:06:05.706Z,15.80
2018-09-08T08:08:34.345Z,16.20
2018-09-08T08:11:02.990Z,16.50
2018-09-08T08:13:31.650Z,17.00
2018-09-08T08:16:00.294Z,17.70
2018-09-08T08:18:29.258Z,17.70
2018-09-08T08:20:57.922Z,17.30
2018-09-08T08:23:26.612Z,17.20
2018-09-08T08:25:55.322Z,16.90
2018-09-08T08:28:24.005Z,16.60
2018-09-08T08:30:52.667Z,16.50
2018-09-08T08:33:21.295Z,16.40
2018-09-08T08:35:49.949Z,16.40
2018-09-08T08:38:18.586Z,16.40
2018-09-08T08:40:47.293Z,16.50
2018-09-08T08:43:15.963Z,16.40
2018-09-08T08:45:44.597Z,16.60
2018-09-08T08:48:13.250Z,16.80
2018-09-08T08:50:53.417Z,16.90
2018-09-08T08:53:33.485Z,16.90
2018-09-08T08:56:02.151Z,17.00
2018-09-08T08:58:30.839Z,17.10
2018-09-08T09:00:59.530Z,17.20
2018-09-08T09:03:29.069Z,17.30
2018-09-08T09:05:58.133Z,17.50
2018-09-08T09:08:27.255Z,17.80
2018-09-08T09:10:55.578Z,17.70
2018-09-08T09:13:24.455Z,17.60
2018-09-08T09:15:53.054Z,17.80
2018-09-08T09:18:34.383Z,18.30
2018-09-08T09:21:14.042Z,18.40
2018-09-08T09:24:22.730Z,18.50
2018-09-08T09:26:51.069Z,18.50
2018-09-08T09:29:20.134Z,18.40
2018-09-08T09:31:48.814Z,18.50
2018-09-08T09:34:17.454Z,18.50
2018-09-08T09:36:46.097Z,18.80
2018-09-08T09:39:14.877Z,18.50
2018-09-08T09:41:43.522Z,18.40
2018-09-08T09:44:12.503Z,18.30
2018-09-08T09:46:41.734Z,18.20
2018-09-08T09:49:10.512Z,18.30
2018-09-08T09:51:39.287Z,18.40
2018-09-08T09:54:07.969Z,17.80
2018-09-08T09:56:36.635Z,17.70
2018-09-08T09:59:05.296Z,18.00
2018-09-08T10:01:39.255Z,18.60
2018-09-08T10:04:07.993Z,19.00
2018-09-08T10:06:37.013Z,18.90
2018-09-08T10:09:07.096Z,18.70
2018-09-08T10:11:35.894Z,18.30
2018-09-08T10:14:04.701Z,18.30
2018-09-08T10:16:33.436Z,18.30
2018-09-08T10:19:02.163Z,18.40
2018-09-08T10:21:30.861Z,18.90
2018-09-08T10:24:05.158Z,19.00
2018-09-08T10:26:28.230Z,19.70
2018-09-08T10:28:56.797Z,19.50
2018-09-08T10:31:25.746Z,20.00
2018-09-08T10:33:54.465Z,20.70
2018-09-08T10:36:23.142Z,20.00
2018-09-08T10:38:51.836Z,19.30
2018-09-08T10:41:20.617Z,19.30
2018-09-08T10:43:49.294Z,19.10
2018-09-08T10:46:18.049Z,19.00
2018-09-08T10:48:46.678Z,19.00
2018-09-08T10:51:56.673Z,18.80
2018-09-08T10:54:25.531Z,18.90
2018-09-08T10:56:54.201Z,19.20
2018-09-08T10:59:22.854Z,19.10
2018-09-08T11:01:52.079Z,19.30
2018-09-08T11:04:22.285Z,19.30
2018-09-08T11:06:51.768Z,19.60
2018-09-08T11:09:21.183Z,20.70
2018-09-08T11:11:50.576Z,20.70
2018-09-08T11:14:20.109Z,20.50
2018-09-08T11:16:49.527Z,20.50
2018-09-08T11:19:18.274Z,20.70
2018-09-08T11:21:46.920Z,20.60
2018-09-08T11:24:15.667Z,21.10
2018-09-08T11:26:44.393Z,21.30
2018-09-08T11:29:13.882Z,21.80
2018-09-08T11:31:42.530Z,22.00
2018-09-08T11:34:11.267Z,22.10
2018-09-08T11:36:39.954Z,22.70
2018-09-08T11:39:08.849Z,23.50
2018-09-08T11:41:38.085Z,23.30
2018-09-08T11:44:06.745Z,23.10
2018-09-08T11:46:35.511Z,22.70
2018-09-08T11:49:04.145Z,22.70
2018-09-08T11:51:32.806Z,22.40
2018-09-08T11:54:01.453Z,21.80
2018-09-08T11:56:30.106Z,21.30
2018-09-08T11:58:58.767Z,20.40
2018-09-08T12:01:27.477Z,20.00
2018-09-08T12:03:56.250Z,21.20
2018-09-08T12:06:25.034Z,22.20
2018-09-08T12:08:53.584Z,22.70
2018-09-08T12:11:22.254Z,23.30
2018-09-08T12:13:51.014Z,22.50
2018-09-08T12:16:19.620Z,22.40
2018-09-08T12:18:48.265Z,23.40
2018-09-08T12:21:16.963Z,23.30
2018-09-08T12:23:45.614Z,23.80
2018-09-08T12:26:14.256Z,25.10
2018-09-08T12:31:18.037Z,24.80
2018-09-08T12:33:46.680Z,24.30
2018-09-08T12:36:15.323Z,24.60
2018-09-08T12:38:44.004Z,24.60
2018-09-08T12:41:12.649Z,25.10
2018-09-08T12:43:41.330Z,24.50
2018-09-08T12:46:09.970Z,23.40
2018-09-08T12:48:38.742Z,22.40
2018-09-08T12:51:07.444Z,23.00
2018-09-08T12:53:36.134Z,24.30
2018-09-08T12:56:05.059Z,25.00
2018-09-08T12:58:33.694Z,24.40
2018-09-08T13:01:02.361Z,23.50
2018-09-08T13:03:31.022Z,22.70
2018-09-08T13:05:59.678Z,22.10
2018-09-08T13:08:28.438Z,22.10
2018-09-08T13:10:57.107Z,22.90
2018-09-08T13:13:25.844Z,23.30
2018-09-08T13:15:54.530Z,24.30
2018-09-08T13:18:23.175Z,24.10
2018-09-08T13:20:51.813Z,23.60
2018-09-08T13:23:20.781Z,22.90
2018-09-08T13:25:49.530Z,22.70
2018-09-08T13:28:18.182Z,22.80
2018-09-08T13:30:46.917Z,23.30
2018-09-08T13:33:15.563Z,24.10
2018-09-08T13:35:44.318Z,24.20
2018-09-08T13:38:12.962Z,23.40
2018-09-08T13:40:41.779Z,22.80
2018-09-08T13:43:10.428Z,22.30
2018-09-08T13:45:39.122Z,21.60
2018-09-08T13:48:07.802Z,21.30
2018-09-08T13:50:36.509Z,21.20
2018-09-08T13:53:05.234Z,21.20
2018-09-08T13:55:33.896Z,20.90
2018-09-08T13:58:02.601Z,20.80
2018-09-08T14:00:31.218Z,20.80
2018-09-08T14:02:59.914Z,20.80
2018-09-08T14:05:28.562Z,20.80
2018-09-08T14:07:59.848Z,21.00
2018-09-08T14:10:33.786Z,21.50
2018-09-08T14:13:03.148Z,21.80
2018-09-08T14:15:32.356Z,21.50
2018-09-08T14:18:01.536Z,21.10
2018-09-08T14:20:30.722Z,21.00
2018-09-08T14:22:59.869Z,21.00
2018-09-08T14:25:29.092Z,20.90
2018-09-08T14:27:58.421Z,20.90
2018-09-08T14:30:27.070Z,21.20
2018-09-08T14:32:55.770Z,21.30
2018-09-08T14:35:24.490Z,21.40
2018-09-08T14:37:53.129Z,21.50
2018-09-08T14:40:21.869Z,21.40
2018-09-08T14:42:50.574Z,21.70
2018-09-08T14:45:19.497Z,21.70
2018-09-08T14:47:48.440Z,21.40
2018-09-08T14:50:17.130Z,21.70
2018-09-08T14:52:46.170Z,22.00
2018-09-08T14:55:14.807Z,22.10
2018-09-08T14:57:43.458Z,22.30
2018-09-08T15:00:12.130Z,21.80
2018-09-08T15:02:41.220Z,21.90
2018-09-08T15:05:10.078Z,21.90
2018-09-08T15:07:39.295Z,21.50
2018-09-08T15:10:08.002Z,21.80
2018-09-08T15:12:36.726Z,21.30
2018-09-08T15:15:05.893Z,21.00
2018-09-08T15:17:34.764Z,21.00
2018-09-08T15:20:03.432Z,20.70
2018-09-08T15:22:32.376Z,20.50
2018-09-08T15:25:01.076Z,20.20
2018-09-08T15:27:29.706Z,20.20
2018-09-08T15:29:58.516Z,20.10
2018-09-08T15:32:27.310Z,20.00
2018-09-08T15:34:57.331Z,19.90
2018-09-08T15:37:26.093Z,19.90
2018-09-08T15:39:55.015Z,19.80
2018-09-08T15:42:23.667Z,19.70
2018-09-08T15:44:52.369Z,19.60
2018-09-08T15:47:21.065Z,19.60
2018-09-08T15:49:49.711Z,19.50
2018-09-08T15:52:18.372Z,19.50
2018-09-08T15:54:47.286Z,19.40
2018-09-08T15:57:15.969Z,19.40
2018-09-08T15:59:44.626Z,19.40
2018-09-08T16:02:13.374Z,19.30
2018-09-08T16:04:42.074Z,19.30
2018-09-08T16:07:10.769Z,19.20
2018-09-08T16:09:39.494Z,19.30
2018-09-08T16:12:08.184Z,19.30
2018-09-08T16:14:36.839Z,19.20
2018-09-08T16:17:05.597Z,19.20
2018-09-08T16:19:34.297Z,19.20
2018-09-08T16:22:02.953Z,19.20
2018-09-08T16:24:31.661Z,19.20
2018-09-08T16:27:00.350Z,19.20
2018-09-08T16:29:29.072Z,19.20
2018-09-08T16:31:57.769Z,19.20
2018-09-08T16:34:26.509Z,19.20
2018-09-08T16:36:55.164Z,19.20
2018-09-08T16:39:23.857Z,19.20
2018-09-08T16:41:52.578Z,19.20
2018-09-08T16:44:21.498Z,19.10
2018-09-08T16:46:50.146Z,19.10
2018-09-08T16:49:18.796Z,19.10
2018-09-08T16:51:47.475Z,19.10
2018-09-08T16:54:16.170Z,19.00
2018-09-08T16:56:44.825Z,19.10
2018-09-08T16:59:13.846Z,19.00
2018-09-08T17:01:42.485Z,19.00
2018-09-08T17:04:11.171Z,19.00
2018-09-08T17:06:39.853Z,19.00
2018-09-08T17:09:08.650Z,18.90
2018-09-08T17:11:37.865Z,18.90
2018-09-08T17:14:06.506Z,18.80
2018-09-08T17:16:35.153Z,18.80
2018-09-08T17:19:03.901Z,18.70
2018-09-08T17:21:32.683Z,18.70
2018-09-08T17:24:01.574Z,18.70
2018-09-08T17:26:30.369Z,18.70
2018-09-08T17:28:59.094Z,18.70
2018-09-08T17:31:27.785Z,18.60
2018-09-08T17:33:56.465Z,18.60
2018-09-08T17:36:25.341Z,18.60
2018-09-08T17:38:54.284Z,18.50
2018-09-08T17:41:23.036Z,18.40
2018-09-08T17:43:51.722Z,18.40
2018-09-08T17:46:20.425Z,18.40
2018-09-08T17:48:49.130Z,18.30
2018-09-08T17:51:24.615Z,18.30
2018-09-08T17:53:53.786Z,18.30
2018-09-08T17:56:22.462Z,18.20
2018-09-08T17:58:51.212Z,18.20
2018-09-08T18:01:20.153Z,18.20
2018-09-08T18:03:50.290Z,18.10
2018-09-08T18:06:19.181Z,18.10
2018-09-08T18:08:47.851Z,18.10
2018-09-08T18:11:16.489Z,18.10
2018-09-08T18:13:45.218Z,18.00
2018-09-08T18:16:13.910Z,18.00
2018-09-08T18:18:42.605Z,18.00
2018-09-08T18:21:14.494Z,18.00
2018-09-08T18:23:43.513Z,18.00
2018-09-08T18:26:12.192Z,17.90
2018-09-08T18:28:40.924Z,17.90
2018-09-08T18:31:10.156Z,18.00
2018-09-08T18:33:38.919Z,17.90
2018-09-08T18:36:08.085Z,17.90
2018-09-08T18:38:36.823Z,17.90
2018-09-08T18:41:05.476Z,17.90
2018-09-08T18:43:34.117Z,17.90
2018-09-08T18:46:02.768Z,17.90
2018-09-08T18:48:31.697Z,17.80
2018-09-08T18:51:00.409Z,17.80
2018-09-08T18:53:29.116Z,17.80
2018-09-08T18:55:57.826Z,17.80
2018-09-08T18:58:26.479Z,17.70
2018-09-08T19:00:55.130Z,17.70
2018-09-08T19:03:23.798Z,17.70
2018-09-08T19:05:52.473Z,17.60
2018-09-08T19:08:21.241Z,17.50
2018-09-08T19:10:49.921Z,17.50
2018-09-08T19:13:18.560Z,17.50
2018-09-08T19:15:47.227Z,17.50
2018-09-08T19:18:15.898Z,17.50
2018-09-08T19:20:44.614Z,17.50
2018-09-08T19:23:13.310Z,17.50
2018-09-08T19:25:41.986Z,17.40
2018-09-08T19:28:10.612Z,17.40
2018-09-08T19:30:39.325Z,17.40
2018-09-08T19:33:07.974Z,17.40
2018-09-08T19:35:37.341Z,17.40
2018-09-08T19:38:06.399Z,17.40
2018-09-08T19:40:40.577Z,17.40
2018-09-08T19:43:09.307Z,17.30
2018-09-08T19:45:38.162Z,17.30
2018-09-08T19:48:08.630Z,17.30
2018-09-08T19:50:37.289Z,17.30
2018-09-08T19:53:11.307Z,17.30
2018-09-08T19:55:40.041Z,17.30
2018-09-08T19:58:14.033Z,17.20
2018-09-08T20:00:42.771Z,17.20
2018-09-08T20:03:11.418Z,17.20
2018-09-08T20:05:40.142Z,17.10
2018-09-08T20:08:08.855Z,17.10
2018-09-08T20:10:37.506Z,17.00
2018-09-08T20:13:06.458Z,17.00
2018-09-08T20:15:35.133Z,17.00
2018-09-08T20:18:03.798Z,17.00
2018-09-08T20:20:32.533Z,16.90
2018-09-08T20:23:01.218Z,16.80
2018-09-08T20:25:29.942Z,16.80
2018-09-08T20:27:58.618Z,16.70
2018-09-08T20:30:27.335Z,16.70
2018-09-08T20:32:56.006Z,16.70
2018-09-08T20:35:24.741Z,16.70
2018-09-08T20:37:53.408Z,16.60
2018-09-08T20:40:22.058Z,16.60
2018-09-08T20:42:50.717Z,16.50
2018-09-08T20:45:19.366Z,16.50
2018-09-08T20:47:48.083Z,16.50
2018-09-08T20:50:16.755Z,16.50
2018-09-08T20:52:45.326Z,16.50
2018-09-08T20:55:14.030Z,16.40
2018-09-08T20:57:42.670Z,16.40
2018-09-08T21:00:11.446Z,16.40
2018-09-08T21:02:40.100Z,16.40
2018-09-08T21:05:08.757Z,16.50
2018-09-08T21:07:37.624Z,16.60
2018-09-08T21:10:06.318Z,16.60
2018-09-08T21:12:35.018Z,16.50
2018-09-08T21:15:03.685Z,16.40
2018-09-08T21:17:32.441Z,16.40
2018-09-08T21:20:01.102Z,16.50
2018-09-08T21:22:29.746Z,16.40
2018-09-08T21:24:58.397Z,16.40
2018-09-08T21:27:27.034Z,16.30
2018-09-08T21:29:55.798Z,16.30
2018-09-08T21:32:24.449Z,16.20
2018-09-08T21:34:53.670Z,16.20
2018-09-08T21:37:22.326Z,16.20
2018-09-08T21:39:51.036Z,16.20
2018-09-08T21:42:19.687Z,16.10
2018-09-08T21:44:48.370Z,16.10
2018-09-08T21:47:17.018Z,16.20
2018-09-08T21:49:45.671Z,16.20
2018-09-08T21:52:14.329Z,16.10
2018-09-08T21:54:43.934Z,16.10
2018-09-08T21:57:12.586Z,16.10
2018-09-08T21:59:41.266Z,16.10
2018-09-08T22:02:09.901Z,16.10
2018-09-08T22:04:38.582Z,16.10
2018-09-08T22:07:07.219Z,16.20
2018-09-08T22:09:36.298Z,16.10
2018-09-08T22:12:05.434Z,16.00
2018-09-08T22:14:35.517Z,16.10
2018-09-08T22:17:04.170Z,16.10
2018-09-08T22:19:32.825Z,16.00
2018-09-08T22:22:01.536Z,16.00
2018-09-08T22:24:30.429Z,16.00
2018-09-08T22:26:59.090Z,16.00
2018-09-08T22:29:27.822Z,16.00
2018-09-08T22:31:56.509Z,16.00
2018-09-08T22:34:25.191Z,16.00
2018-09-08T22:36:53.825Z,16.10
2018-09-08T22:39:22.490Z,16.00
2018-09-08T22:41:51.149Z,16.00
2018-09-08T22:44:19.913Z,16.00
2018-09-08T22:46:48.581Z,16.00
2018-09-08T22:49:17.236Z,15.90
2018-09-08T22:51:45.958Z,15.90
2018-09-08T22:54:14.610Z,15.90
2018-09-08T22:56:43.481Z,15.80
2018-09-08T22:59:12.070Z,15.80
2018-09-08T23:01:40.825Z,15.70
2018-09-08T23:04:10.629Z,15.70
2018-09-08T23:06:39.494Z,15.70
2018-09-08T23:09:08.289Z,15.70
2018-09-08T23:11:36.954Z,15.70
2018-09-08T23:14:05.638Z,15.70
2018-09-08T23:16:34.292Z,15.70
2018-09-08T23:19:03.099Z,15.70
2018-09-08T23:21:31.858Z,15.70
2018-09-08T23:24:00.504Z,15.70
2018-09-08T23:26:29.173Z,15.70
2018-09-08T23:28:58.043Z,15.70
2018-09-08T23:31:26.755Z,15.70
2018-09-08T23:33:55.522Z,15.70
2018-09-08T23:36:24.173Z,15.70
2018-09-08T23:38:52.929Z,15.70
2018-09-08T23:41:24.064Z,15.70
2018-09-08T23:43:52.822Z,15.70
2018-09-08T23:46:21.614Z,15.70
2018-09-08T23:48:50.270Z,15.70
2018-09-08T23:51:18.914Z,15.70
2018-09-08T23:53:47.560Z,15.60
2018-09-08T23:56:16.199Z,15.60
2018-09-08T23:58:44.869Z,15.60
